Estació municipal de Susqueda - Veïnat del Coll (La Selva, )

Consulta les dades en temps real de l'estació municipal de Susqueda - Veïnat del Coll





Hora UTC 17:20
Temperatura 22.9 ºC
Humitat 64.5 %
Pressió 1024.8 hPa
Pluja 0.0 mm
Velocitat vent 5.4 km/h
Direcció vent E
Radiació solar 25.7 W/m²

Dades diàries 2026-09-03



Hora UTC (hivern +1h; estiu +2h)
Temperatura (ºC) Humitat (%) Pressió (hPa) Velocitat vent (km/h) Precipitació (mm) Radiació solar (W/m²)
Hora UTC Aire Humitat Pressió Vel. Dir. Vel. Max Dir. Intent. màx 5 min. Rad. Sol.
00:05 19.7 66.8 1025.2 6.7 SE 6.7 SE 0.0 0.1
00:10 19.6 66.4 1025.2 5.3 SSE 8.8 SE 0.0 0.1
00:15 19.8 63.4 1025.2 3.9 SSE 7.1 SE 0.0 0.2
00:20 19.8 63.8 1025.2 3.6 SSE 5.6 SE 0.0 0.1
00:25 19.7 65.0 1025.2 4.0 SSE 7.1 SSE 0.0 0.1
00:30 19.7 64.5 1025.2 4.1 SSE 8.1 ESE 0.0 0.1
00:35 19.7 64.8 1025.2 4.1 S 6.0 SSW 0.0 0.1
00:40 19.4 66.9 1025.2 4.3 SSW 8.1 S 0.0 0.1
00:45 19.3 68.2 1025.3 3.6 SSW 6.0 SW 0.0 0.1
00:50 19.3 69.0 1025.3 3.3 SSW 5.6 SW 0.0 0.1
00:55 19.2 69.3 1025.3 3.8 SSW 6.7 SW 0.0 0.1
01:00 19.3 69.3 1025.3 3.8 SSW 6.7 SW 0.0 0.1
01:05 19.2 69.8 1025.2 4.1 SW 6.7 SSW 0.0 0.1
01:10 19.1 69.9 1025.2 4.6 SSW 7.1 S 0.0 0.1
01:15 19.1 71.2 1025.2 4.5 SW 7.1 SW 0.0 0.1
01:20 19.0 73.6 1025.2 3.7 SW 6.7 SSW 0.0 0.1
01:25 18.9 74.9 1025.2 4.5 SW 8.5 SSW 0.0 0.1
01:30 18.9 75.6 1025.2 3.5 SW 6.4 SW 0.0 0.1
01:35 18.9 75.9 1025.2 3.1 SW 6.0 SW 0.0 0.1
01:40 18.8 76.1 1025.2 2.8 SW 4.9 SSW 0.0 0.1
01:45 18.7 76.4 1025.2 2.9 SW 7.4 S 0.0 0.1
01:50 18.6 77.0 1025.2 3.4 SSW 6.4 SSW 0.0 0.1
01:55 18.5 77.2 1025.2 3.2 SSW 5.3 SW 0.0 0.1
02:00 18.6 76.7 1025.2 3.9 SSW 7.4 S 0.0 0.1
02:05 18.6 76.5 1025.1 3.6 SSW 6.7 SSW 0.0 0.1
02:10 18.7 76.3 1025.1 3.3 SW 6.0 SW 0.0 0.1
02:15 18.6 76.8 1025.0 3.4 SW 6.4 SW 0.0 0.1
02:20 18.6 76.8 1025.0 3.9 SW 8.8 SSW 0.0 0.1
02:25 18.6 76.5 1025.0 4.0 SSW 9.5 SW 0.0 0.1
02:30 18.7 75.9 1025.0 4.5 SSW 9.2 SW 0.0 0.1
02:35 18.8 75.0 1025.0 4.3 SW 8.1 SW 0.0 0.1
02:40 18.9 74.6 1025.0 3.7 SSW 8.1 SW 0.0 0.1
02:45 19.0 74.8 1025.0 3.9 SW 6.7 SSW 0.0 0.1
02:50 18.9 75.4 1025.0 4.2 SW 12.4 SW 0.0 0.1
02:55 18.9 75.4 1025.0 4.5 SW 9.9 S 0.0 0.1
03:00 18.9 75.0 1025.0 4.2 SW 9.9 SSW 0.0 0.1
03:05 19.0 74.6 1024.9 4.2 SW 8.5 W 0.0 0.1
03:10 19.0 74.4 1024.9 4.9 SSW 10.2 S 0.0 0.1
03:15 19.0 74.5 1024.9 4.4 SSW 9.5 WSW 0.0 0.1
03:20 19.0 74.7 1024.9 4.1 SSW 9.2 SSW 0.0 0.1
03:25 19.0 74.7 1024.9 4.6 SSW 9.2 SSW 0.0 0.1
03:30 18.9 75.2 1024.9 3.9 SSW 7.4 S 0.0 0.1
03:35 18.8 74.8 1024.8 4.3 SSW 7.1 SW 0.0 0.1
03:40 18.9 72.7 1024.8 3.8 S 9.2 SSW 0.0 0.1
03:45 19.2 70.1 1024.6 2.4 S 4.9 SE 0.0 0.1
03:50 19.3 69.2 1024.6 3.3 SSW 7.1 SSW 0.0 0.1
03:55 19.4 68.8 1024.6 2.5 SSE 11.3 SSW 0.0 0.1
04:00 19.4 69.1 1024.6 2.1 SSE 9.9 WSW 0.0 0.1
04:05 19.2 70.1 1024.6 2.6 S 13.4 S 0.0 0.1
04:10 19.0 71.5 1024.6 2.7 SSW 6.4 S 0.0 0.1
04:15 18.8 72.1 1024.6 4.3 SSW 11.3 WSW 0.0 0.1
04:20 19.0 71.3 1024.6 3.6 S 9.5 S 0.0 0.2
04:25 19.2 69.9 1024.5 1.8 SSE 7.4 SSW 0.0 0.1
04:30 19.4 69.4 1024.5 2.5 S 7.1 SSE 0.0 0.1
04:35 19.3 69.5 1024.5 2.7 SSE 7.1 S 0.0 0.1
04:40 19.3 69.6 1024.5 2.5 S 5.6 SSW 0.0 0.1
04:45 19.1 70.7 1024.5 2.1 S 5.6 SSE 0.0 0.1
04:50 19.1 71.1 1024.5 2.1 SSW 8.8 S 0.0 0.1
04:55 18.9 72.0 1024.6 1.5 SSW 6.0 SSE 0.0 0.2
05:00 18.6 73.9 1024.6 2.7 SSW 6.4 WSW 0.0 0.5
05:05 18.4 75.5 1024.6 3.2 SSW 7.1 SSW 0.0 1.0
05:10 18.6 74.8 1024.6 3.1 SSW 7.4 SSW 0.0 2.0
05:15 18.6 74.4 1024.6 2.9 S 7.1 SW 0.0 3.2
05:20 18.5 74.5 1024.6 2.4 SSW 6.7 SW 0.0 5.5
05:25 18.5 74.3 1024.7 2.4 SSW 7.8 WSW 0.0 11.8
05:30 18.5 73.7 1024.7 2.0 SW 7.4 WSW 0.0 22.1
05:35 18.8 72.8 1024.8 3.4 SSW 9.2 SSW 0.0 33.8
05:40 19.0 71.4 1024.8 4.1 SSW 10.2 WSW 0.0 45.6
05:45 19.3 69.9 1024.9 3.5 S 8.8 SSW 0.0 55.2
05:50 19.6 69.0 1024.9 2.9 SSW 10.2 WSW 0.0 69.8
05:55 19.7 68.4 1024.9 4.4 SSW 12.7 S 0.0 82.6
06:00 19.9 67.6 1024.9 4.4 SSW 9.9 SW 0.0 95.1
06:05 20.2 66.3 1025.0 3.2 SSW 8.1 WSW 0.0 108.4
06:10 20.5 65.2 1025.0 4.5 SSW 9.9 S 0.0 121.7
06:15 20.7 64.3 1025.1 4.2 S 8.5 SE 0.0 135.4
06:20 20.9 63.9 1025.1 3.7 S 11.6 SW 0.0 149.3
06:25 21.1 62.9 1025.1 3.0 WSW 9.5 SW 0.0 163.8
06:30 21.3 62.7 1025.1 3.0 S 7.8 SW 0.0 178.7
06:35 21.5 61.8 1025.2 3.9 SSW 9.9 WSW 0.0 193.8
06:40 21.5 61.6 1025.2 2.6 W 7.4 NW 0.0 209.8
06:45 21.8 60.6 1025.2 2.1 NE 6.0 NW 0.0 226.3
06:50 22.0 60.2 1025.2 1.0 SSE 4.9 SSE 0.0 242.0
06:55 22.1 59.5 1025.3 1.8 E 10.9 NE 0.0 257.7
07:00 21.8 60.6 1025.3 5.0 WSW 12.7 SW 0.0 273.4
07:05 21.8 60.2 1025.3 1.5 ESE 7.4 SSE 0.0 289.5
07:10 22.1 60.2 1025.3 2.0 SE 8.1 SSW 0.0 305.2
07:15 22.1 60.2 1025.3 3.9 SW 16.2 SW 0.0 321.3
07:20 21.7 61.1 1025.3 3.4 SSW 9.5 WSW 0.0 337.7
07:25 21.8 60.8 1025.5 3.8 S 10.9 S 0.0 353.8
07:30 22.0 60.2 1025.5 5.0 S 10.2 SE 0.0 369.5
07:35 22.2 59.5 1025.4 6.1 SW 13.8 WSW 0.0 384.6
07:40 22.4 58.4 1025.4 4.1 SSW 12.7 S 0.0 400.3
07:45 22.8 57.0 1025.4 4.0 SE 9.9 S 0.0 415.2
07:50 22.7 56.8 1025.4 3.7 WSW 10.9 SW 0.0 430.3
07:55 22.4 57.2 1025.4 2.8 SSW 12.7 SSW 0.0 444.8
08:00 22.5 56.9 1025.4 4.9 SW 12.7 SW 0.0 458.1
08:05 22.4 56.6 1025.4 6.2 WSW 19.4 SW 0.0 472.0
08:10 22.6 56.4 1025.4 3.0 S 7.4 WNW 0.0 485.5
08:15 22.6 56.6 1025.4 3.8 W 10.6 SSW 0.0 499.8
08:20 22.8 56.1 1025.4 3.0 N 6.4 SSE 0.0 513.2
08:25 23.3 55.1 1025.6 2.2 SW 7.8 W 0.0 526.3
08:30 23.3 54.9 1025.6 2.4 WSW 6.4 SW 0.0 540.0
08:35 23.4 54.7 1025.6 2.5 W 7.8 WNW 0.0 553.6
08:40 23.3 55.1 1025.6 2.3 W 7.8 W 0.0 566.4
08:45 23.2 55.1 1025.7 3.5 WSW 9.9 SSW 0.0 579.2
08:50 23.3 54.9 1025.7 3.8 SW 8.8 S 0.0 592.1
08:55 23.4 53.6 1025.8 5.5 SSE 13.4 SE 0.0 604.3
09:00 23.9 52.3 1025.8 4.2 SW 13.1 WSW 0.0 615.6
09:05 24.5 51.0 1025.8 6.8 SE 14.5 S 0.0 627.1
09:10 24.7 49.6 1025.8 3.5 SSW 11.6 S 0.0 638.1
09:15 24.9 50.0 1025.8 4.1 NE 9.9 NNE 0.0 650.4
09:20 24.8 50.9 1025.8 3.4 ESE 10.6 ESE 0.0 662.0
09:25 24.9 49.4 1025.9 4.4 NNW 16.2 NNE 0.0 674.5
09:30 25.2 49.6 1025.9 5.5 E 15.9 ENE 0.0 684.5
09:35 25.4 48.9 1025.9 5.4 NNE 13.1 N 0.0 696.4
09:40 25.7 48.9 1025.9 3.2 NE 7.8 E 0.0 704.7
09:45 25.6 49.2 1026.0 3.7 E 12.0 ENE 0.0 713.5
09:50 25.4 49.4 1026.0 3.5 E 13.4 ENE 0.0 723.9
09:55 25.2 49.3 1026.0 3.0 NNW 8.5 N 0.0 735.1
10:00 25.4 49.0 1026.0 5.4 N 12.7 NNW 0.0 744.3
10:05 26.3 48.1 1026.0 7.1 WSW 16.2 SSW 0.0 754.1
10:10 26.5 46.7 1026.0 2.6 ESE 7.4 ESE 0.0 760.1
10:15 26.0 47.3 1026.0 2.5 NNW 6.4 NNW 0.0 766.9
10:20 25.9 48.0 1026.0 3.0 N 7.4 NNW 0.0 774.7
10:25 25.9 47.5 1025.9 1.6 WNW 5.3 NW 0.0 778.2
10:30 26.1 47.1 1025.9 2.6 NE 5.6 ENE 0.0 785.1
10:35 26.2 48.3 1025.9 1.8 N 4.9 N 0.0 792.0
10:40 27.1 46.3 1025.9 2.6 NNE 6.4 NNW 0.0 797.4
10:45 26.9 46.1 1025.8 2.7 NE 8.8 ENE 0.0 800.0
10:50 26.8 46.1 1025.8 2.9 NNE 7.4 NE 0.0 808.0
10:55 27.0 45.9 1025.7 2.4 NNE 6.4 NNE 0.0 814.0
11:00 27.4 45.2 1025.7 2.3 N 6.4 E 0.0 817.0
11:05 27.9 44.1 1025.6 2.3 NE 6.4 NNE 0.0 815.0
11:10 27.4 44.7 1025.6 4.2 NE 9.9 NE 0.0 822.0
11:15 27.1 45.6 1025.6 3.5 ENE 11.3 ENE 0.0 824.0
11:20 27.1 45.7 1025.6 3.9 NE 9.2 ENE 0.0 824.0
11:25 27.3 45.0 1025.6 3.9 ESE 8.5 E 0.0 826.0
11:30 27.2 45.6 1025.6 3.4 ENE 7.8 NE 0.0 825.0
11:35 27.1 45.8 1025.5 6.1 NE 15.2 NE 0.0 823.0
11:40 27.3 45.0 1025.5 6.0 ENE 13.1 ENE 0.0 819.0
11:45 27.3 45.2 1025.5 3.1 NE 6.4 E 0.0 821.0
11:50 27.7 44.3 1025.5 5.3 ENE 12.7 ENE 0.0 828.0
11:55 27.7 43.8 1025.5 4.6 ENE 11.6 E 0.0 822.0
12:00 27.9 44.0 1025.5 3.7 ENE 11.3 E 0.0 826.0
12:05 28.1 43.4 1025.3 5.1 ENE 13.4 ENE 0.0 828.0
12:10 27.8 43.6 1025.3 4.7 ENE 16.9 ENE 0.0 825.0
12:15 28.3 42.5 1025.3 5.4 E 16.2 ESE 0.0 824.0
12:20 27.9 43.4 1025.3 7.3 ENE 18.4 ENE 0.0 820.0
12:25 27.6 43.8 1025.2 6.0 NE 12.7 E 0.0 811.0
12:30 27.2 45.0 1025.2 8.5 ENE 19.4 E 0.0 807.0
12:35 27.4 44.9 1025.2 7.8 E 16.2 ENE 0.0 799.5
12:40 27.6 44.4 1025.2 5.5 ENE 14.5 E 0.0 794.3
12:45 27.9 44.3 1025.1 8.1 E 19.1 E 0.0 798.9
12:50 27.8 44.5 1025.1 6.1 E 15.5 E 0.0 791.8
12:55 27.5 45.2 1025.2 7.3 E 19.1 ENE 0.0 783.2
13:00 27.2 46.4 1025.2 6.6 E 14.5 ENE 0.0 776.4
13:05 27.3 46.4 1025.1 7.9 ENE 16.2 ENE 0.0 771.5
13:10 27.4 46.4 1025.1 8.8 E 17.6 E 0.0 762.1
13:15 27.4 46.7 1025.1 6.0 E 13.1 ENE 0.0 755.2
13:20 27.6 46.5 1025.1 7.0 ENE 16.9 ENE 0.0 752.2
13:25 27.8 46.4 1025.1 5.0 ENE 14.8 ENE 0.0 741.1
13:30 27.6 47.1 1025.1 7.4 ENE 17.3 ENE 0.0 736.4
13:35 27.5 47.9 1025.1 7.3 ENE 14.8 ENE 0.0 728.1
13:40 27.7 47.8 1025.1 7.0 E 16.6 NE 0.0 716.5
13:45 27.4 48.9 1025.0 9.6 E 19.4 E 0.0 707.9
13:50 27.4 49.5 1025.0 8.9 E 18.0 E 0.0 698.0
13:55 27.6 49.2 1024.9 9.3 E 17.3 E 0.0 688.4
14:00 27.6 49.6 1024.9 7.9 E 19.4 ENE 0.0 676.6
14:05 27.4 50.2 1024.9 9.4 E 20.5 NE 0.0 668.7
14:10 27.2 50.8 1024.9 8.9 E 20.8 NE 0.0 655.1
14:15 27.1 51.4 1024.8 10.0 ENE 18.4 NE 0.0 647.8
14:20 26.7 52.6 1024.8 9.2 E 16.9 ENE 0.0 637.4
14:25 26.9 52.2 1024.6 6.8 E 16.9 NE 0.0 623.9
14:30 27.0 51.8 1024.6 8.3 E 16.9 E 0.0 607.9
14:35 26.8 52.2 1024.6 8.4 E 16.2 E 0.0 598.5
14:40 27.0 51.7 1024.6 7.4 E 17.6 E 0.0 590.1
14:45 26.8 51.7 1024.6 8.7 E 16.6 E 0.0 572.8
14:50 26.5 52.2 1024.6 9.7 E 20.5 ESE 0.0 559.3
14:55 26.4 52.4 1024.6 6.6 E 13.8 ESE 0.0 548.3
15:00 26.5 51.9 1024.6 5.9 E 13.1 E 0.0 534.6
15:05 26.5 52.0 1024.6 5.0 E 12.0 E 0.0 522.0
15:10 26.4 52.1 1024.6 6.2 E 13.4 ENE 0.0 507.0
15:15 26.3 52.0 1024.6 5.9 ESE 12.7 ESE 0.0 490.7
15:20 26.3 52.2 1024.6 5.2 E 11.6 E 0.0 475.5
15:25 26.3 51.9 1024.6 4.8 ESE 12.0 E 0.0 459.6
15:30 26.2 52.1 1024.6 5.0 ESE 9.2 SSE 0.0 443.5
15:35 26.2 52.1 1024.6 5.2 E 10.6 E 0.0 428.1
15:40 26.0 52.3 1024.6 4.6 ESE 7.4 ENE 0.0 414.0
15:45 25.9 52.4 1024.6 3.1 E 6.7 ENE 0.0 348.3
15:50 25.8 52.8 1024.6 2.5 E 6.0 E 0.0 206.2
15:55 25.8 53.0 1024.6 4.0 ENE 7.4 ENE 0.0 64.1
16:00 25.6 53.0 1024.6 4.1 ESE 8.1 ENE 0.0 55.1
16:05 25.4 53.6 1024.6 3.1 E 6.4 SE 0.0 53.9
16:10 25.2 54.4 1024.6 3.9 ESE 9.2 E 0.0 49.7
16:15 24.9 55.1 1024.6 4.3 ESE 8.1 E 0.0 46.1
16:20 24.7 55.3 1024.6 5.8 ESE 13.1 ENE 0.0 72.4
16:25 24.6 55.7 1024.6 6.7 E 14.1 ESE 0.0 69.4
16:30 24.4 56.5 1024.6 7.0 E 13.8 ENE 0.0 50.6
16:35 24.2 57.6 1024.7 8.0 E 16.9 E 0.0 38.6
16:40 24.0 58.5 1024.7 7.8 E 16.9 E 0.0 37.3
16:45 23.9 59.3 1024.8 7.5 E 14.1 E 0.0 36.0
16:50 23.7 60.5 1024.8 5.8 E 10.9 ESE 0.0 34.4
16:55 23.5 61.6 1024.7 5.9 E 13.4 E 0.0 32.8
17:00 23.4 62.3 1024.7 5.6 ESE 10.6 E 0.0 31.6
17:05 23.3 62.7 1024.7 4.3 ESE 9.9 E 0.0 30.0
17:10 23.1 63.5 1024.7 4.1 ESE 8.1 ENE 0.0 28.6
17:15 23.0 64.2 1024.8 4.8 E 14.5 E 0.0 27.1
17:20 22.9 64.5 1024.8 5.4 E 11.3 E 0.0 25.7
Màxima 28.3 77.2 1026.0 10.0 ENE 20.8 NE 0.0 828.0
Mínima 18.4 42.5 1024.5
Total 0.0